createdAt,value
2019-03-30T00:00:30.980Z,5.16
2019-03-30T00:03:02.350Z,5.21
2019-03-30T00:05:32.778Z,5.08
2019-03-30T00:08:03.196Z,5.04
2019-03-30T00:10:33.748Z,5.04
2019-03-30T00:13:04.165Z,5.02
2019-03-30T00:15:34.611Z,4.98
2019-03-30T00:18:05.001Z,4.88
2019-03-30T00:20:35.458Z,4.88
2019-03-30T00:23:05.860Z,4.94
2019-03-30T00:25:36.359Z,4.88
2019-03-30T00:28:06.775Z,4.93
2019-03-30T00:30:37.246Z,4.82
2019-03-30T00:33:07.689Z,4.77
2019-03-30T00:35:38.167Z,4.74
2019-03-30T00:38:08.599Z,4.71
2019-03-30T00:40:39.060Z,4.77
2019-03-30T00:43:09.501Z,4.75
2019-03-30T00:45:39.984Z,4.81
2019-03-30T00:48:10.454Z,4.82
2019-03-30T00:50:40.959Z,4.88
2019-03-30T00:53:11.376Z,4.87
2019-03-30T00:55:41.838Z,4.80
2019-03-30T00:58:12.259Z,4.84
2019-03-30T01:00:42.753Z,4.89
2019-03-30T01:03:13.394Z,4.77
2019-03-30T01:05:43.834Z,4.70
2019-03-30T01:08:14.261Z,4.69
2019-03-30T01:10:44.804Z,4.65
2019-03-30T01:13:15.235Z,4.67
2019-03-30T01:15:47.121Z,4.61
2019-03-30T01:18:17.543Z,4.49
2019-03-30T01:20:48.018Z,4.44
2019-03-30T01:23:18.445Z,4.30
2019-03-30T01:25:48.920Z,4.04
2019-03-30T01:28:19.367Z,3.98
2019-03-30T01:30:49.819Z,3.86
2019-03-30T01:33:20.265Z,3.82
2019-03-30T01:35:50.704Z,3.83
2019-03-30T01:38:21.149Z,3.81
2019-03-30T01:40:51.625Z,3.80
2019-03-30T01:43:22.061Z,3.85
2019-03-30T01:45:52.527Z,3.85
2019-03-30T01:48:22.934Z,3.80
2019-03-30T01:50:53.377Z,3.84
2019-03-30T01:53:23.743Z,3.81
2019-03-30T01:55:54.228Z,3.74
2019-03-30T01:58:24.660Z,3.78
2019-03-30T02:00:55.125Z,3.79
2019-03-30T02:03:26.440Z,3.74
2019-03-30T02:05:56.913Z,3.67
2019-03-30T02:08:27.328Z,3.69
2019-03-30T02:10:57.880Z,3.75
2019-03-30T02:13:28.286Z,3.75
2019-03-30T02:15:58.736Z,3.73
2019-03-30T02:18:29.438Z,3.62
2019-03-30T02:20:59.970Z,3.61
2019-03-30T02:23:30.393Z,3.64
2019-03-30T02:26:00.847Z,3.61
2019-03-30T02:28:31.273Z,3.53
2019-03-30T02:31:01.764Z,3.53
2019-03-30T02:33:32.185Z,3.41
2019-03-30T02:36:02.694Z,3.43
2019-03-30T02:38:33.110Z,3.41
2019-03-30T02:41:03.609Z,3.43
2019-03-30T02:43:34.041Z,3.45
2019-03-30T02:46:06.559Z,3.35
2019-03-30T02:48:36.989Z,3.33
2019-03-30T02:51:07.450Z,3.31
2019-03-30T02:53:37.860Z,3.22
2019-03-30T02:56:08.361Z,3.23
2019-03-30T02:58:38.762Z,3.24
2019-03-30T03:01:09.266Z,3.21
2019-03-30T03:03:40.560Z,3.21
2019-03-30T03:06:11.136Z,3.13
2019-03-30T03:08:41.545Z,3.11
2019-03-30T03:11:12.111Z,3.04
2019-03-30T03:13:42.550Z,3.03
2019-03-30T03:16:13.044Z,3.07
2019-03-30T03:18:43.429Z,3.08
2019-03-30T03:21:13.902Z,3.10
2019-03-30T03:23:44.303Z,3.12
2019-03-30T03:26:14.786Z,3.11
2019-03-30T03:28:45.216Z,3.13
2019-03-30T03:31:15.680Z,3.16
2019-03-30T03:33:46.130Z,3.22
2019-03-30T03:36:16.570Z,3.21
2019-03-30T03:38:46.944Z,3.22
2019-03-30T03:41:17.438Z,3.25
2019-03-30T03:43:47.865Z,3.21
2019-03-30T03:46:18.331Z,3.24
2019-03-30T03:48:48.782Z,3.26
2019-03-30T03:51:26.072Z,3.30
2019-03-30T03:53:53.202Z,3.30
2019-03-30T03:56:25.949Z,3.29
2019-03-30T03:58:57.888Z,3.37
2019-03-30T04:01:28.572Z,3.41
2019-03-30T04:04:00.662Z,3.40
2019-03-30T04:06:33.005Z,3.35
2019-03-30T04:09:04.887Z,3.39
2019-03-30T04:11:38.093Z,3.42
2019-03-30T04:14:11.743Z,3.43
2019-03-30T04:16:42.202Z,3.48
2019-03-30T04:19:12.606Z,3.59
2019-03-30T04:21:44.811Z,3.66
2019-03-30T04:24:15.201Z,3.68
2019-03-30T04:26:45.685Z,3.77
2019-03-30T04:29:16.104Z,3.86
2019-03-30T04:31:46.597Z,3.92
2019-03-30T04:34:17.037Z,3.96
2019-03-30T04:36:47.562Z,4.10
2019-03-30T04:39:18.001Z,4.18
2019-03-30T04:41:48.486Z,4.28
2019-03-30T04:44:18.912Z,4.39
2019-03-30T04:46:49.411Z,4.53
2019-03-30T04:49:19.854Z,4.59
2019-03-30T04:51:57.415Z,4.74
2019-03-30T04:54:22.499Z,4.76
2019-03-30T04:56:52.990Z,4.80
2019-03-30T04:59:23.437Z,4.95
2019-03-30T05:01:53.927Z,5.09
2019-03-30T05:04:25.280Z,5.20
2019-03-30T05:06:55.785Z,5.33
2019-03-30T05:09:26.213Z,5.42
2019-03-30T05:11:56.784Z,5.60
2019-03-30T05:14:27.282Z,5.62
2019-03-30T05:16:57.792Z,5.73
2019-03-30T05:19:28.275Z,5.68
2019-03-30T05:22:11.443Z,6.04
2019-03-30T05:24:30.901Z,6.21
2019-03-30T05:27:01.404Z,6.39
2019-03-30T05:29:31.855Z,6.62
2019-03-30T05:32:02.339Z,6.71
2019-03-30T05:34:32.783Z,6.66
2019-03-30T05:37:03.299Z,6.73
2019-03-30T05:39:33.756Z,6.86
2019-03-30T05:42:04.224Z,6.78
2019-03-30T05:44:34.670Z,6.84
2019-03-30T05:47:05.140Z,6.77
2019-03-30T05:49:35.596Z,6.86
2019-03-30T05:52:06.096Z,7.04
2019-03-30T05:54:36.564Z,7.19
2019-03-30T05:57:07.065Z,7.49
2019-03-30T05:59:37.553Z,7.50
2019-03-30T06:02:08.022Z,7.29
2019-03-30T06:04:38.803Z,7.19
2019-03-30T06:07:09.291Z,7.10
2019-03-30T06:09:39.764Z,7.36
2019-03-30T06:12:10.320Z,7.50
2019-03-30T06:14:40.744Z,7.88
2019-03-30T06:17:11.248Z,8.08
2019-03-30T06:19:41.702Z,8.21
2019-03-30T06:22:12.169Z,8.06
2019-03-30T06:24:42.593Z,7.81
2019-03-30T06:27:13.083Z,7.87
2019-03-30T06:29:43.477Z,7.60
2019-03-30T06:32:13.970Z,7.93
2019-03-30T06:34:44.414Z,8.20
2019-03-30T06:37:14.915Z,8.24
2019-03-30T06:39:45.354Z,8.60
2019-03-30T06:42:15.807Z,8.77
2019-03-30T06:44:46.284Z,8.89
2019-03-30T06:47:16.807Z,8.58
2019-03-30T06:49:47.290Z,8.78
2019-03-30T06:52:17.890Z,8.58
2019-03-30T06:54:48.353Z,8.77
2019-03-30T06:57:18.835Z,9.10
2019-03-30T06:59:49.299Z,8.95
2019-03-30T07:02:19.821Z,8.87
2019-03-30T07:04:51.789Z,8.94
2019-03-30T07:07:23.718Z,8.77
2019-03-30T07:09:54.241Z,8.93
2019-03-30T07:12:24.892Z,9.00
2019-03-30T07:14:58.279Z,9.01
2019-03-30T07:17:29.974Z,9.41
2019-03-30T07:20:02.734Z,9.47
2019-03-30T07:22:33.244Z,9.83
2019-03-30T07:25:03.800Z,10.21
2019-03-30T07:27:34.326Z,10.22
2019-03-30T07:30:08.564Z,10.70
2019-03-30T07:32:39.092Z,10.62
2019-03-30T07:35:09.538Z,10.91
2019-03-30T07:37:40.052Z,11.13
2019-03-30T07:40:10.727Z,10.85
2019-03-30T07:42:41.192Z,10.48
2019-03-30T07:45:12.943Z,10.53
2019-03-30T07:47:43.481Z,10.62
2019-03-30T07:50:14.009Z,10.63
2019-03-30T07:52:44.519Z,10.54
2019-03-30T07:55:14.976Z,10.59
2019-03-30T07:57:45.468Z,10.78
2019-03-30T08:00:16.829Z,10.77
2019-03-30T08:02:47.322Z,11.08
2019-03-30T08:05:18.785Z,11.39
2019-03-30T08:07:49.259Z,11.68
2019-03-30T08:10:19.789Z,11.91
2019-03-30T08:12:50.354Z,11.71
2019-03-30T08:15:20.939Z,11.84
2019-03-30T08:17:53.199Z,11.43
2019-03-30T08:20:24.150Z,11.69
2019-03-30T08:22:54.614Z,12.32
2019-03-30T08:25:25.205Z,12.55
2019-03-30T08:27:55.704Z,12.66
2019-03-30T08:30:26.145Z,12.89
2019-03-30T08:32:56.735Z,12.68
2019-03-30T08:35:27.230Z,12.65
2019-03-30T08:37:57.828Z,12.54
2019-03-30T08:40:28.368Z,12.35
2019-03-30T08:42:58.902Z,12.06
2019-03-30T08:45:29.377Z,12.01
2019-03-30T08:47:59.887Z,11.53
2019-03-30T08:50:30.346Z,11.55
2019-03-30T08:53:00.879Z,11.85
2019-03-30T08:55:31.372Z,11.50
2019-03-30T08:58:01.975Z,11.41
2019-03-30T09:00:40.268Z,11.27
2019-03-30T09:03:10.991Z,11.48
2019-03-30T09:05:42.388Z,11.58
2019-03-30T09:08:12.897Z,11.26
2019-03-30T09:10:43.450Z,11.68
2019-03-30T09:13:15.626Z,11.94
2019-03-30T09:15:46.083Z,11.75
2019-03-30T09:18:16.607Z,11.67
2019-03-30T09:20:47.074Z,11.73
2019-03-30T09:23:17.619Z,11.77
2019-03-30T09:25:48.098Z,11.65
2019-03-30T09:28:18.730Z,12.25
2019-03-30T09:30:49.170Z,11.47
2019-03-30T09:33:19.782Z,11.35
2019-03-30T09:35:50.318Z,11.17
2019-03-30T09:38:20.855Z,11.23
2019-03-30T09:40:51.361Z,11.30
2019-03-30T09:43:21.867Z,11.05
2019-03-30T09:45:52.353Z,10.98
2019-03-30T09:48:22.861Z,11.26
2019-03-30T09:50:53.312Z,11.55
2019-03-30T09:53:23.800Z,11.73
2019-03-30T09:55:54.277Z,12.23
2019-03-30T09:58:24.774Z,12.72
2019-03-30T10:00:55.220Z,12.95
2019-03-30T10:03:25.748Z,12.81
2019-03-30T10:05:57.082Z,12.80
2019-03-30T10:08:27.632Z,12.79
2019-03-30T10:10:58.131Z,12.95
2019-03-30T10:13:28.750Z,12.56
2019-03-30T10:15:59.218Z,12.61
2019-03-30T10:18:29.813Z,12.55
2019-03-30T10:21:00.277Z,12.72
2019-03-30T10:23:30.806Z,12.45
2019-03-30T10:26:01.351Z,11.92
2019-03-30T10:28:31.899Z,11.74
2019-03-30T10:31:02.390Z,12.11
2019-03-30T10:33:32.913Z,11.91
2019-03-30T10:36:03.371Z,11.77
2019-03-30T10:38:34.277Z,11.95
2019-03-30T10:41:04.734Z,12.21
2019-03-30T10:43:35.323Z,12.26
2019-03-30T10:46:06.241Z,12.29
2019-03-30T10:48:36.877Z,12.44
2019-03-30T10:51:07.365Z,12.30
2019-03-30T10:53:39.427Z,11.74
2019-03-30T10:56:09.979Z,11.71
2019-03-30T10:58:40.492Z,11.50
2019-03-30T11:01:11.082Z,11.39
2019-03-30T11:03:41.599Z,11.70
2019-03-30T11:06:13.003Z,11.81
2019-03-30T11:08:43.708Z,12.14
2019-03-30T11:11:14.240Z,11.82
2019-03-30T11:13:44.851Z,11.85
2019-03-30T11:16:15.317Z,11.95
2019-03-30T11:18:45.894Z,11.75
2019-03-30T11:21:16.502Z,11.72
2019-03-30T11:23:47.033Z,11.85
2019-03-30T11:26:17.869Z,11.72
2019-03-30T11:28:48.417Z,11.60
2019-03-30T11:31:19.901Z,11.89
2019-03-30T11:33:50.395Z,12.24
2019-03-30T11:36:20.846Z,12.08
2019-03-30T11:38:51.399Z,12.25
2019-03-30T11:41:24.851Z,12.47
2019-03-30T11:43:53.994Z,12.77
2019-03-30T11:46:24.437Z,12.50
2019-03-30T11:48:54.938Z,12.29
2019-03-30T11:51:26.640Z,12.53
2019-03-30T11:53:57.177Z,13.10
2019-03-30T11:56:27.606Z,13.13
2019-03-30T11:58:58.127Z,13.45
2019-03-30T12:01:28.656Z,13.21
2019-03-30T12:03:59.109Z,13.49
2019-03-30T12:06:30.362Z,13.76
2019-03-30T12:09:00.866Z,13.98
2019-03-30T12:11:31.299Z,14.10
2019-03-30T12:14:01.857Z,14.70
2019-03-30T12:16:32.295Z,14.86
2019-03-30T12:19:02.905Z,15.28
2019-03-30T12:21:33.341Z,15.20
2019-03-30T12:24:03.798Z,16.15
2019-03-30T12:26:34.227Z,17.20
2019-03-30T12:29:04.700Z,18.29
2019-03-30T12:31:35.117Z,19.22
2019-03-30T12:34:05.581Z,18.73
2019-03-30T12:36:36.129Z,19.04
2019-03-30T12:39:08.235Z,18.51
2019-03-30T12:41:38.657Z,19.06
2019-03-30T12:44:09.144Z,17.95
2019-03-30T12:46:39.585Z,17.08
2019-03-30T12:49:10.109Z,17.79
2019-03-30T12:51:40.527Z,18.63
2019-03-30T12:54:11.025Z,18.72
2019-03-30T12:56:41.471Z,19.15
2019-03-30T12:59:11.949Z,19.79
2019-03-30T13:01:42.386Z,20.43
2019-03-30T13:04:12.859Z,19.76
2019-03-30T13:06:44.175Z,19.61
2019-03-30T13:09:14.646Z,19.93
2019-03-30T13:11:45.089Z,19.20
2019-03-30T13:14:15.667Z,16.98
2019-03-30T13:16:46.106Z,17.53
2019-03-30T13:19:16.600Z,16.35
2019-03-30T13:21:52.790Z,16.41
2019-03-30T13:24:19.238Z,16.45
2019-03-30T13:26:49.692Z,16.99
2019-03-30T13:29:20.204Z,16.83
2019-03-30T13:31:50.625Z,17.12
2019-03-30T13:34:21.034Z,17.53
2019-03-30T13:36:51.464Z,17.53
2019-03-30T13:39:21.956Z,17.14
2019-03-30T13:41:52.395Z,17.26
2019-03-30T13:44:22.880Z,17.31
2019-03-30T13:46:53.338Z,17.83
2019-03-30T13:49:23.817Z,18.02
2019-03-30T13:51:54.271Z,19.22
2019-03-30T13:54:24.749Z,18.59
2019-03-30T13:56:55.186Z,18.45
2019-03-30T13:59:25.671Z,18.69
2019-03-30T14:01:56.092Z,18.58
2019-03-30T14:04:26.572Z,18.40
2019-03-30T14:06:58.079Z,18.25
2019-03-30T14:09:28.564Z,18.19
2019-03-30T14:11:59.011Z,17.73
2019-03-30T14:14:29.559Z,16.88
2019-03-30T14:17:00.015Z,16.01
2019-03-30T14:19:30.518Z,15.28
2019-03-30T14:22:00.997Z,14.78
2019-03-30T14:24:31.498Z,15.08
2019-03-30T14:27:01.909Z,14.30
2019-03-30T14:29:32.395Z,14.10
2019-03-30T14:32:02.864Z,13.98
2019-03-30T14:34:33.320Z,14.06
2019-03-30T14:37:03.774Z,14.00
2019-03-30T14:39:34.259Z,14.03
2019-03-30T14:42:04.914Z,13.58
2019-03-30T14:44:35.372Z,13.76
2019-03-30T14:47:05.819Z,13.64
2019-03-30T14:49:36.298Z,13.53
2019-03-30T14:52:06.737Z,13.39
2019-03-30T14:54:37.273Z,13.38
2019-03-30T14:57:07.715Z,13.22
2019-03-30T14:59:38.247Z,13.04
2019-03-30T15:02:08.694Z,13.15
2019-03-30T15:04:39.274Z,13.19
2019-03-30T15:07:11.443Z,13.14
2019-03-30T15:09:41.964Z,13.04
2019-03-30T15:12:12.482Z,12.99
2019-03-30T15:14:43.063Z,12.84
2019-03-30T15:17:13.511Z,12.83
2019-03-30T15:19:44.029Z,12.50
2019-03-30T15:22:14.526Z,12.61
2019-03-30T15:24:45.007Z,12.40
2019-03-30T15:27:15.441Z,12.35
2019-03-30T15:29:45.891Z,12.35
2019-03-30T15:32:16.325Z,12.37
2019-03-30T15:34:46.789Z,12.18
2019-03-30T15:37:17.279Z,12.24
2019-03-30T15:39:47.879Z,12.17
2019-03-30T15:42:18.377Z,12.04
2019-03-30T15:44:48.842Z,12.09
2019-03-30T15:47:19.270Z,12.00
2019-03-30T15:49:49.736Z,11.92
2019-03-30T15:52:20.346Z,11.73
2019-03-30T15:54:50.823Z,11.80
2019-03-30T15:57:21.276Z,11.72
2019-03-30T15:59:51.795Z,11.74
2019-03-30T16:02:22.638Z,11.68
2019-03-30T16:04:53.111Z,11.59
2019-03-30T16:07:24.405Z,11.51
2019-03-30T16:09:54.944Z,11.41
2019-03-30T16:12:25.376Z,11.30
2019-03-30T16:14:55.923Z,11.26
2019-03-30T16:17:26.365Z,11.27
2019-03-30T16:19:56.874Z,11.21
2019-03-30T16:22:27.307Z,11.20
2019-03-30T16:24:57.801Z,11.24
2019-03-30T16:27:29.505Z,10.97
2019-03-30T16:30:00.314Z,10.88
2019-03-30T16:32:30.818Z,10.91
2019-03-30T16:35:01.279Z,10.72
2019-03-30T16:37:31.726Z,10.61
2019-03-30T16:40:02.313Z,10.41
2019-03-30T16:42:32.770Z,10.35
2019-03-30T16:45:03.271Z,10.41
2019-03-30T16:47:33.811Z,10.38
2019-03-30T16:50:05.555Z,10.32
2019-03-30T16:52:36.040Z,10.19
2019-03-30T16:55:06.617Z,10.35
2019-03-30T16:57:43.666Z,10.26
2019-03-30T17:00:09.996Z,10.12
2019-03-30T17:02:40.449Z,10.07
2019-03-30T17:05:11.726Z,10.06
2019-03-30T17:07:43.122Z,9.91
2019-03-30T17:10:13.706Z,9.91
2019-03-30T17:12:44.161Z,9.84
2019-03-30T17:15:14.730Z,9.81
2019-03-30T17:17:45.194Z,9.67
2019-03-30T17:20:15.699Z,9.67
2019-03-30T17:22:46.144Z,9.52
2019-03-30T17:25:16.642Z,9.57
2019-03-30T17:27:58.145Z,9.39
2019-03-30T17:30:19.271Z,9.40
2019-03-30T17:32:49.739Z,9.37
2019-03-30T17:35:20.218Z,9.37
2019-03-30T17:37:50.659Z,9.38
2019-03-30T17:40:21.174Z,9.27
2019-03-30T17:42:51.620Z,9.24
2019-03-30T17:45:22.117Z,9.27
2019-03-30T17:47:52.572Z,9.25
2019-03-30T17:50:23.041Z,9.23
2019-03-30T17:52:53.510Z,9.28
2019-03-30T17:55:33.486Z,9.23
2019-03-30T17:57:56.171Z,9.08
2019-03-30T18:00:26.619Z,9.05
2019-03-30T18:02:57.041Z,9.06
2019-03-30T18:05:27.528Z,8.96
2019-03-30T18:08:01.698Z,9.05
2019-03-30T18:10:31.025Z,9.09
2019-03-30T18:13:01.467Z,8.94
2019-03-30T18:15:34.642Z,8.91
2019-03-30T18:18:04.144Z,9.03
2019-03-30T18:20:34.605Z,9.01
2019-03-30T18:23:05.033Z,8.97
2019-03-30T18:25:35.531Z,8.89
2019-03-30T18:28:05.969Z,8.72
2019-03-30T18:30:39.348Z,8.65
2019-03-30T18:33:09.944Z,8.44
2019-03-30T18:35:41.023Z,8.35
2019-03-30T18:38:13.065Z,8.29
2019-03-30T18:40:43.887Z,8.31
2019-03-30T18:43:14.341Z,8.27
2019-03-30T18:45:44.846Z,8.19
2019-03-30T18:48:17.031Z,8.18
2019-03-30T18:50:47.930Z,8.23
2019-03-30T18:53:18.380Z,8.11
2019-03-30T18:55:48.888Z,8.01
2019-03-30T18:58:19.356Z,8.03
2019-03-30T19:00:49.862Z,8.04
2019-03-30T19:03:22.234Z,7.95
2019-03-30T19:05:52.740Z,7.80
2019-03-30T19:08:24.082Z,7.80
2019-03-30T19:10:54.583Z,7.82
2019-03-30T19:13:25.060Z,7.81
2019-03-30T19:15:55.641Z,7.77
2019-03-30T19:18:26.113Z,7.52
2019-03-30T19:20:56.613Z,7.35
2019-03-30T19:23:27.059Z,7.32
2019-03-30T19:25:57.569Z,7.30
2019-03-30T19:28:28.184Z,7.38
2019-03-30T19:30:58.660Z,7.18
2019-03-30T19:33:29.169Z,6.99
2019-03-30T19:35:59.659Z,6.98
2019-03-30T19:38:30.100Z,6.83
2019-03-30T19:41:00.572Z,6.80
2019-03-30T19:43:31.060Z,6.74
2019-03-30T19:46:01.547Z,6.76
2019-03-30T19:48:31.986Z,6.74
2019-03-30T19:51:02.508Z,6.60
2019-03-30T19:53:32.923Z,6.60
2019-03-30T19:56:03.411Z,6.59
2019-03-30T19:58:33.859Z,6.60
2019-03-30T20:01:04.410Z,6.41
2019-03-30T20:03:34.935Z,6.36
2019-03-30T20:06:05.348Z,6.36
2019-03-30T20:08:36.716Z,6.40
2019-03-30T20:11:07.238Z,6.41
2019-03-30T20:13:37.717Z,6.37
2019-03-30T20:16:08.268Z,6.41
2019-03-30T20:18:38.712Z,6.40
2019-03-30T20:21:09.193Z,6.27
2019-03-30T20:23:39.629Z,6.20
2019-03-30T20:26:10.123Z,6.20
2019-03-30T20:28:40.574Z,6.22
2019-03-30T20:31:11.072Z,6.22
2019-03-30T20:33:41.500Z,6.16
2019-03-30T20:36:12.001Z,6.11
2019-03-30T20:38:42.457Z,6.20
2019-03-30T20:41:13.323Z,6.16
2019-03-30T20:43:43.795Z,6.07
2019-03-30T20:46:14.280Z,6.01
2019-03-30T20:48:44.751Z,5.94
2019-03-30T20:51:15.296Z,5.95
2019-03-30T20:53:45.800Z,5.96
2019-03-30T20:56:16.309Z,5.96
2019-03-30T20:58:46.783Z,5.97
2019-03-30T21:01:17.265Z,6.07
2019-03-30T21:03:47.711Z,6.03
2019-03-30T21:06:18.228Z,6.00
2019-03-30T21:08:49.553Z,5.96
2019-03-30T21:11:20.026Z,5.77
2019-03-30T21:13:50.512Z,5.85
2019-03-30T21:16:21.080Z,5.84
2019-03-30T21:18:51.528Z,5.94
2019-03-30T21:21:22.014Z,5.70
2019-03-30T21:23:52.434Z,5.72
2019-03-30T21:26:22.906Z,5.65
2019-03-30T21:28:53.374Z,5.71
2019-03-30T21:31:23.910Z,5.72
2019-03-30T21:33:54.396Z,5.80
2019-03-30T21:36:24.911Z,5.76
2019-03-30T21:38:55.384Z,5.65
2019-03-30T21:41:25.876Z,5.46
2019-03-30T21:43:56.361Z,5.43
2019-03-30T21:46:26.870Z,5.30
2019-03-30T21:48:57.327Z,5.20
2019-03-30T21:51:27.828Z,5.19
2019-03-30T21:53:58.269Z,5.18
2019-03-30T21:56:28.729Z,5.26
2019-03-30T21:58:59.154Z,5.19
2019-03-30T22:01:29.665Z,5.18
2019-03-30T22:04:00.117Z,4.95
2019-03-30T22:06:30.728Z,4.95
2019-03-30T22:09:02.059Z,4.97
2019-03-30T22:11:32.551Z,4.87
2019-03-30T22:14:02.977Z,4.76
2019-03-30T22:16:33.543Z,4.85
2019-03-30T22:19:04.010Z,4.92
2019-03-30T22:21:34.492Z,4.78
2019-03-30T22:24:04.928Z,4.53
2019-03-30T22:26:35.401Z,4.50
2019-03-30T22:29:05.846Z,4.46
2019-03-30T22:31:36.231Z,4.38
2019-03-30T22:34:06.710Z,4.35
2019-03-30T22:36:37.192Z,4.42
2019-03-30T22:39:08.029Z,4.32
2019-03-30T22:41:38.512Z,4.23
2019-03-30T22:44:08.970Z,4.12
2019-03-30T22:46:39.450Z,4.17
2019-03-30T22:49:09.894Z,4.24
2019-03-30T22:51:40.347Z,4.15
2019-03-30T22:54:10.809Z,4.17
2019-03-30T22:56:41.282Z,4.12
2019-03-30T22:59:11.731Z,4.08
2019-03-30T23:01:42.341Z,4.13
2019-03-30T23:04:12.758Z,4.11
2019-03-30T23:06:43.219Z,4.04
2019-03-30T23:09:14.598Z,4.14
2019-03-30T23:11:45.131Z,4.28
2019-03-30T23:14:15.544Z,4.35
2019-03-30T23:16:46.140Z,4.26
2019-03-30T23:19:16.582Z,4.23
2019-03-30T23:21:47.035Z,4.21
2019-03-30T23:24:17.505Z,4.12
2019-03-30T23:26:47.984Z,3.69
2019-03-30T23:29:18.449Z,3.63
2019-03-30T23:31:48.935Z,3.82
2019-03-30T23:34:19.372Z,3.94
2019-03-30T23:36:49.891Z,3.82
2019-03-30T23:39:20.336Z,3.66
2019-03-30T23:41:50.820Z,3.65
2019-03-30T23:44:21.272Z,3.48
2019-03-30T23:46:51.742Z,3.41
2019-03-30T23:49:22.181Z,3.42
2019-03-30T23:51:52.683Z,3.53
2019-03-30T23:54:23.115Z,3.39
2019-03-30T23:56:53.652Z,3.35
2019-03-30T23:59:24.087Z,3.29
